Time;durP1;ratioP1;P1;durP2;ratioP2;P2;SDS_P1;SDS_P2;PMS_P1;PMS_P2;Temp;Humidity;BMP_temperature;BMP_pressure;BME280_temperature;BME280_humidity;BME280_pressure;Samples;Min_cycle;Max_cycle;Signal;HPM_P1;HPM_P2
2022/10/25 00:01:47;;;;;;;;;;;;;;;11.19;100.00;98874.31;4999276;28;19947;-67
2022/10/25 00:04:13;;;;;;;;;;;;;;;11.13;100.00;98877.81;4999985;28;19954;-66
2022/10/25 00:06:38;;;;;;;;;;;;;;;11.09;100.00;98873.63;4996151;28;19941;-66
2022/10/25 00:09:04;;;;;;;;;;;;;;;11.06;100.00;98872.84;4994995;28;19961;-66
2022/10/25 00:11:32;;;;;;;;;;;;;;;11.04;100.00;98884.81;4995352;28;20005;-65
2022/10/25 00:14:00;;;;;;;;;;;;;;;11.00;100.00;98897.72;4999239;28;19959;-66
2022/10/25 00:16:27;;;;;;;;;;;;;;;11.03;100.00;98901.97;4999411;28;19948;-67
2022/10/25 00:18:53;;;;;;;;;;;;;;;11.02;100.00;98889.16;4995572;28;20014;-66
2022/10/25 00:21:18;;;;;;;;;;;;;;;11.06;100.00;98891.66;4995283;28;20017;-66
2022/10/25 00:23:44;;;;;;;;;;;;;;;11.13;100.00;98890.66;4995539;28;19953;-66
2022/10/25 00:26:10;;;;;;;;;;;;;;;11.10;100.00;98895.84;5000449;28;19954;-66
2022/10/25 00:28:37;;;;;;;;;;;;;;;11.09;100.00;98906.13;5000703;28;19950;-67
2022/10/25 00:31:08;;;;;;;;;;;;;;;11.13;100.00;98894.94;5001424;28;20008;-67
2022/10/25 00:33:34;;;;;;;;;;;;;;;11.08;100.00;98894.16;4999628;28;19957;-66
2022/10/25 00:36:03;;;;;;;;;;;;;;;11.10;100.00;98895.84;4999908;28;20489;-67
2022/10/25 00:38:29;;;;;;;;;;;;;;;11.06;100.00;98886.50;4997070;28;20333;-65
2022/10/25 00:40:54;;;;;;;;;;;;;;;10.99;100.00;98892.59;4998401;28;20001;-66
2022/10/25 00:43:30;;;;;;;;;;;;;;;11.11;100.00;98899.28;5002870;28;19954;-66
2022/10/25 00:45:56;;;;;;;;;;;;;;;11.09;100.00;98888.16;5000726;28;19950;-68
2022/10/25 00:48:21;;;;;;;;;;;;;;;11.11;100.00;98886.44;4998324;28;19946;-67
2022/10/25 00:50:48;;;;;;;;;;;;;;;11.11;100.00;98886.44;4998828;28;20319;-66
2022/10/25 00:53:19;;;;;;;;;;;;;;;11.07;100.00;98890.78;5003089;28;20086;-67
2022/10/25 00:55:48;;;;;;;;;;;;;;;11.08;100.00;98871.06;4999139;28;19946;-65
2022/10/25 00:58:17;;;;;;;;;;;;;;;11.06;100.00;98877.97;4998696;28;20014;-66
2022/10/25 01:00:44;;;;;;;;;;;;;;;11.06;100.00;98890.78;4999435;28;19960;-66
2022/10/25 01:03:11;;;;;;;;;;;;;;;11.04;100.00;98882.25;5002278;28;20345;-67
2022/10/25 01:05:37;;;;;;;;;;;;;;;11.04;100.00;98880.53;5003000;28;19948;-65
2022/10/25 01:08:03;;;;;;;;;;;;;;;11.09;100.00;98867.66;5002447;28;20001;-65
2022/10/25 01:10:29;;;;;;;;;;;;;;;11.07;100.00;98867.69;5000563;28;19974;-64
2022/10/25 01:12:54;;;;;;;;;;;;;;;11.06;100.00;98867.69;5002307;28;20196;-65
2022/10/25 01:15:27;;;;;;;;;;;;;;;11.09;100.00;98867.66;5003087;28;19955;-65
2022/10/25 01:17:59;;;;;;;;;;;;;;;11.06;100.00;98866.00;5003733;28;20007;-68
2022/10/25 01:20:39;;;;;;;;;;;;;;;11.05;100.00;98863.44;5002210;28;19948;-66
2022/10/25 01:23:05;;;;;;;;;;;;;;;11.03;100.00;98860.06;5003511;28;19940;-66
2022/10/25 01:25:33;;;;;;;;;;;;;;;11.00;100.00;98863.50;4983959;28;19995;-66
2022/10/25 01:28:04;;;;;;;;;;;;;;;10.96;100.00;98867.84;4997927;28;19944;-64
2022/10/25 01:30:50;;;;;;;;;;;;;;;11.03;100.00;98867.75;4997256;28;20119;-68
2022/10/25 01:33:15;;;;;;;;;;;;;;;10.99;100.00;98884.91;4997809;28;20412;-68
2022/10/25 01:35:54;;;;;;;;;;;;;;;10.95;100.00;98878.97;5000313;28;19980;-67
2022/10/25 01:38:22;;;;;;;;;;;;;;;10.94;100.00;98879.03;5002850;28;20328;-66
2022/10/25 01:40:52;;;;;;;;;;;;;;;10.93;100.00;98878.19;5000451;28;19945;-67
2022/10/25 01:43:17;;;;;;;;;;;;;;;10.94;100.00;98885.00;5002056;28;19958;-67
2022/10/25 01:45:52;;;;;;;;;;;;;;;10.97;100.00;98882.38;5001730;28;19943;-67
2022/10/25 01:48:25;;;;;;;;;;;;;;;11.02;100.00;98884.88;5001692;28;19954;-67
2022/10/25 01:50:50;;;;;;;;;;;;;;;11.10;100.00;98880.47;4999908;28;19970;-66
2022/10/25 01:53:16;;;;;;;;;;;;;;;11.10;100.00;98889.88;5002341;28;19953;-66
2022/10/25 01:55:51;;;;;;;;;;;;;;;11.09;100.00;98873.63;4995706;28;19958;-67
2022/10/25 01:58:42;;;;;;;;;;;;;;;11.13;100.00;98871.84;5001947;28;19940;-64
2022/10/25 02:01:11;;;;;;;;;;;;;;;11.11;100.00;98871.03;4997392;28;19982;-64
2022/10/25 02:03:48;;;;;;;;;;;;;;;11.14;100.00;98878.69;4996944;28;20393;-65
2022/10/25 02:06:29;;;;;;;;;;;;;;;11.09;100.00;98872.78;4997365;28;19941;-64
2022/10/25 02:08:54;;;;;;;;;;;;;;;11.05;100.00;98881.41;5001684;28;19942;-68
2022/10/25 02:11:24;;;;;;;;;;;;;;;11.03;100.00;98884.00;5001597;28;19966;-63
2022/10/25 02:14:13;;;;;;;;;;;;;;;11.00;100.00;98884.88;5001525;28;19951;-64
2022/10/25 02:16:41;;;;;;;;;;;;;;;10.99;100.00;98885.75;5001215;28;20461;-63
2022/10/25 02:19:09;;;;;;;;;;;;;;;10.96;100.00;98885.81;5001640;28;20019;-64
2022/10/25 02:21:35;;;;;;;;;;;;;;;10.93;100.00;98888.44;5002213;28;19949;-64
2022/10/25 02:24:05;;;;;;;;;;;;;;;10.93;100.00;98893.56;5001098;28;19955;-73
2022/10/25 02:26:32;;;;;;;;;;;;;;;10.91;100.00;98892.72;5001634;28;19992;-72
2022/10/25 02:28:59;;;;;;;;;;;;;;;10.89;100.00;98883.38;5029245;28;19944;-72
2022/10/25 02:31:24;;;;;;;;;;;;;;;10.86;100.00;98886.00;4999348;28;19958;-75
2022/10/25 02:33:50;;;;;;;;;;;;;;;10.86;100.00;98881.69;5002704;28;20631;-74
2022/10/25 02:36:20;;;;;;;;;;;;;;;10.85;100.00;98869.75;4998932;28;19951;-75
2022/10/25 02:38:46;;;;;;;;;;;;;;;10.85;100.00;98872.31;5028245;28;19948;-74
2022/10/25 02:41:12;;;;;;;;;;;;;;;10.89;100.00;98871.41;4999465;28;20027;-76
2022/10/25 02:43:37;;;;;;;;;;;;;;;10.91;100.00;98874.78;4997052;28;19948;-76
2022/10/25 02:46:04;;;;;;;;;;;;;;;10.92;100.00;98870.50;4997361;28;20574;-72
2022/10/25 02:48:30;;;;;;;;;;;;;;;10.90;100.00;98860.28;4995026;28;19952;-72
2022/10/25 02:50:55;;;;;;;;;;;;;;;10.90;100.00;98862.00;4996583;28;19972;-76
2022/10/25 02:53:20;;;;;;;;;;;;;;;10.88;100.00;98868.84;5001437;28;20309;-76
2022/10/25 02:55:46;;;;;;;;;;;;;;;10.89;100.00;98870.56;5000411;28;20068;-74
2022/10/25 02:58:11;;;;;;;;;;;;;;;10.88;100.00;98867.13;4996640;28;19945;-75
2022/10/25 03:00:37;;;;;;;;;;;;;;;10.89;100.00;98862.84;4997641;28;20060;-75
2022/10/25 03:03:02;;;;;;;;;;;;;;;10.89;100.00;98855.16;4998544;28;20006;-74
2022/10/25 03:05:28;;;;;;;;;;;;;;;10.98;100.00;98866.13;4996714;28;19952;-74
2022/10/25 03:07:53;;;;;;;;;;;;;;;10.98;100.00;98861.00;4999549;28;19989;-65
2022/10/25 03:10:18;;;;;;;;;;;;;;;10.94;100.00;98850.81;5000617;28;20371;-67
2022/10/25 03:12:44;;;;;;;;;;;;;;;10.90;100.00;98860.28;5000781;28;20061;-66
2022/10/25 03:15:09;;;;;;;;;;;;;;;10.88;100.00;98868.84;5000352;28;20031;-66
2022/10/25 03:17:35;;;;;;;;;;;;;;;10.86;100.00;98871.44;4998699;28;19954;-67
2022/10/25 03:20:00;;;;;;;;;;;;;;;10.81;100.00;98870.69;4998191;28;19945;-68
2022/10/25 03:22:26;;;;;;;;;;;;;;;10.88;100.00;98871.41;4996030;28;19994;-67
2022/10/25 03:24:51;;;;;;;;;;;;;;;10.88;100.00;98866.28;4999545;28;19982;-69
2022/10/25 03:27:17;;;;;;;;;;;;;;;10.86;100.00;98866.31;4996338;28;19996;-67
2022/10/25 03:29:42;;;;;;;;;;;;;;;10.83;100.00;98879.19;4997507;28;19947;-65
2022/10/25 03:32:08;;;;;;;;;;;;;;;10.84;100.00;98878.31;5000873;28;20827;-71
2022/10/25 03:34:33;;;;;;;;;;;;;;;10.90;100.00;98880.81;4999402;28;20911;-72
2022/10/25 03:36:59;;;;;;;;;;;;;;;10.90;100.00;98877.38;4997146;28;19951;-70
2022/10/25 03:39:24;;;;;;;;;;;;;;;10.89;100.00;98884.22;4998558;28;19971;-70
2022/10/25 03:41:50;;;;;;;;;;;;;;;10.89;100.00;98885.94;5001552;28;20760;-70
2022/10/25 03:44:16;;;;;;;;;;;;;;;10.99;100.00;98875.50;4998163;28;19957;-72
2022/10/25 03:46:41;;;;;;;;;;;;;;;11.09;100.00;98875.34;4999097;28;20353;-71
2022/10/25 03:49:07;;;;;;;;;;;;;;;11.00;100.00;98884.88;4996444;28;19949;-71
2022/10/25 03:51:32;;;;;;;;;;;;;;;10.96;100.00;98883.25;4998415;28;20368;-74
2022/10/25 03:53:58;;;;;;;;;;;;;;;10.98;100.00;98885.78;5013912;28;20185;-71
2022/10/25 03:56:23;;;;;;;;;;;;;;;10.96;100.00;98882.41;5000392;28;19947;-72
2022/10/25 03:58:49;;;;;;;;;;;;;;;11.00;100.00;98878.91;5002923;28;20046;-71
2022/10/25 04:01:14;;;;;;;;;;;;;;;10.99;100.00;98888.31;5001898;28;19958;-71
2022/10/25 04:03:40;;;;;;;;;;;;;;;10.97;100.00;98877.25;4999434;28;19952;-71
2022/10/25 04:06:06;;;;;;;;;;;;;;;10.93;100.00;98875.59;5000959;28;19950;-72
2022/10/25 04:08:31;;;;;;;;;;;;;;;10.91;100.00;98890.16;4999404;28;20427;-72
2022/10/25 04:10:56;;;;;;;;;;;;;;;10.91;100.00;98894.44;5005053;28;19991;-71
2022/10/25 04:13:22;;;;;;;;;;;;;;;10.94;100.00;98899.56;5003832;28;19945;-71
2022/10/25 04:15:48;;;;;;;;;;;;;;;10.98;100.00;98902.03;5004076;28;19948;-63
2022/10/25 04:18:13;;;;;;;;;;;;;;;10.98;100.00;98898.63;5005975;28;19949;-62
2022/10/25 04:20:39;;;;;;;;;;;;;;;10.96;100.00;98895.22;5007168;28;20298;-63
2022/10/25 04:23:04;;;;;;;;;;;;;;;10.92;100.00;98894.44;5001830;28;19952;-63
2022/10/25 04:25:30;;;;;;;;;;;;;;;10.88;100.00;98900.47;5000349;28;20385;-63
2022/10/25 04:27:56;;;;;;;;;;;;;;;10.85;100.00;98903.09;5000172;28;20055;-63
2022/10/25 04:30:22;;;;;;;;;;;;;;;10.88;100.00;98902.19;5004718;28;19945;-63
2022/10/25 04:32:47;;;;;;;;;;;;;;;10.87;100.00;98898.78;5004449;28;20038;-63
2022/10/25 04:35:13;;;;;;;;;;;;;;;10.87;100.00;98892.81;5000571;28;20290;-62
2022/10/25 04:37:38;;;;;;;;;;;;;;;10.88;100.00;98899.63;5000674;28;19949;-62
2022/10/25 04:40:04;;;;;;;;;;;;;;;10.87;100.00;98885.09;5000733;28;19981;-63
2022/10/25 04:42:32;;;;;;;;;;;;;;;10.88;100.00;98897.06;5004253;28;19954;-62
2022/10/25 04:44:57;;;;;;;;;;;;;;;10.84;100.00;98893.72;5004306;28;19947;-62
2022/10/25 04:47:22;;;;;;;;;;;;;;;10.81;100.00;98905.75;5003484;28;19948;-66
2022/10/25 04:49:48;;;;;;;;;;;;;;;10.81;100.00;98895.47;4991309;28;19956;-64
2022/10/25 04:52:14;;;;;;;;;;;;;;;10.80;100.00;98894.63;4997648;28;20013;-63
2022/10/25 04:54:39;;;;;;;;;;;;;;;10.85;100.00;98884.31;5002938;28;20006;-62
2022/10/25 04:57:06;;;;;;;;;;;;;;;10.83;100.00;98876.63;5003777;28;19948;-63
2022/10/25 04:59:31;;;;;;;;;;;;;;;10.90;100.00;98882.50;5002638;28;19949;-65
2022/10/25 05:01:57;;;;;;;;;;;;;;;10.91;100.00;98885.03;5002722;28;20468;-65
2022/10/25 05:04:22;;;;;;;;;;;;;;;10.85;100.00;98884.31;4997749;28;19950;-64
2022/10/25 05:06:48;;;;;;;;;;;;;;;10.91;100.00;98881.63;4997376;28;19951;-60
2022/10/25 05:09:14;;;;;;;;;;;;;;;10.84;100.00;98883.44;5000136;28;20435;-60
2022/10/25 05:11:39;;;;;;;;;;;;;;;10.86;100.00;98881.69;4999772;28;19959;-61
2022/10/25 05:14:05;;;;;;;;;;;;;;;10.86;100.00;98879.13;4999067;28;19958;-61
2022/10/25 05:16:34;;;;;;;;;;;;;;;10.93;100.00;98880.75;5000603;28;20421;-62
2022/10/25 05:19:00;;;;;;;;;;;;;;;11.07;100.00;98885.66;5002581;28;20492;-61
2022/10/25 05:21:29;;;;;;;;;;;;;;;10.96;100.00;98882.41;5003512;28;20285;-61
2022/10/25 05:23:55;;;;;;;;;;;;;;;10.93;100.00;98880.75;5002583;28;19955;-61
2022/10/25 05:26:20;;;;;;;;;;;;;;;10.85;100.00;98880.03;5000041;28;20037;-61
2022/10/25 05:28:48;;;;;;;;;;;;;;;10.93;100.00;98878.19;4999342;28;20372;-61
2022/10/25 05:31:15;;;;;;;;;;;;;;;10.83;100.00;98874.06;4999421;28;19998;-61
2022/10/25 05:33:40;;;;;;;;;;;;;;;10.84;100.00;98868.06;5000564;28;20425;-62
2022/10/25 05:36:06;;;;;;;;;;;;;;;10.82;100.00;98872.34;5000490;28;19950;-62
2022/10/25 05:38:32;;;;;;;;;;;;;;;10.80;100.00;98870.69;4997148;28;21010;-61
2022/10/25 05:40:58;;;;;;;;;;;;;;;10.77;100.00;98883.56;4998425;28;19967;-61
2022/10/25 05:43:24;;;;;;;;;;;;;;;10.71;100.00;98887.06;5000043;28;20474;-63
2022/10/25 05:45:50;;;;;;;;;;;;;;;10.76;100.00;98887.84;5003593;28;19945;-62
2022/10/25 05:48:16;;;;;;;;;;;;;;;10.75;100.00;98909.22;4999351;28;19946;-61
2022/10/25 05:50:42;;;;;;;;;;;;;;;10.77;100.00;98915.19;4999938;28;19971;-58
2022/10/25 05:53:07;;;;;;;;;;;;;;;10.78;100.00;98921.16;5001974;28;19992;-56
2022/10/25 05:55:33;;;;;;;;;;;;;;;10.74;100.00;98928.06;5003636;28;19947;-56
2022/10/25 05:57:58;;;;;;;;;;;;;;;10.77;100.00;98933.16;4999342;28;19946;-58
2022/10/25 06:00:24;;;;;;;;;;;;;;;10.79;100.00;98936.53;5001520;28;20301;-59
2022/10/25 06:02:49;;;;;;;;;;;;;;;10.74;100.00;98933.19;5004694;28;19947;-58
2022/10/25 06:05:15;;;;;;;;;;;;;;;10.73;100.00;98930.66;5000772;28;20014;-60
2022/10/25 06:07:40;;;;;;;;;;;;;;;10.69;100.00;98935.00;5002610;28;20083;-61
2022/10/25 06:10:06;;;;;;;;;;;;;;;10.71;100.00;98943.50;5001894;28;20338;-57
2022/10/25 06:12:31;;;;;;;;;;;;;;;10.74;100.00;98947.72;5002018;28;20313;-58
2022/10/25 06:14:57;;;;;;;;;;;;;;;10.75;100.00;98944.28;4999869;28;19999;-59
2022/10/25 06:17:22;;;;;;;;;;;;;;;10.77;100.00;98948.53;4999843;28;19950;-61
2022/10/25 06:19:48;;;;;;;;;;;;;;;10.74;100.00;98955.41;4997981;28;19989;-70
2022/10/25 06:22:13;;;;;;;;;;;;;;;10.72;100.00;98960.56;4999952;28;19945;-69
2022/10/25 06:24:39;;;;;;;;;;;;;;;10.76;100.00;98959.66;4997517;28;20273;-67
2022/10/25 06:27:04;;;;;;;;;;;;;;;10.75;100.00;98965.66;4999283;28;19952;-69
2022/10/25 06:29:29;;;;;;;;;;;;;;;10.78;100.00;98975.00;5002393;28;19955;-69
2022/10/25 06:31:55;;;;;;;;;;;;;;;10.80;100.00;98979.25;5000825;28;20020;-70
2022/10/25 06:34:21;;;;;;;;;;;;;;;10.82;100.00;98967.25;4999745;28;19973;-66
2022/10/25 06:36:46;;;;;;;;;;;;;;;10.90;100.00;98967.16;5003636;28;19952;-69
2022/10/25 06:39:12;;;;;;;;;;;;;;;10.94;100.00;98969.66;5003683;28;20226;-70
2022/10/25 06:41:37;;;;;;;;;;;;;;;10.96;100.00;98973.03;5003240;28;19947;-70
2022/10/25 06:44:03;;;;;;;;;;;;;;;11.05;100.00;98973.75;5002054;28;19945;-70
2022/10/25 06:46:31;;;;;;;;;;;;;;;11.19;100.00;98972.69;5000670;28;19947;-66
2022/10/25 06:48:58;;;;;;;;;;;;;;;11.21;100.00;98986.31;4997670;28;20433;-70
2022/10/25 06:51:24;;;;;;;;;;;;;;;11.22;100.00;98979.47;4999081;28;19993;-69
2022/10/25 06:53:54;;;;;;;;;;;;;;;11.36;100.00;98977.53;5000770;28;19950;-69
2022/10/25 06:56:19;;;;;;;;;;;;;;;11.44;100.00;98981.69;4997382;28;19961;-70
2022/10/25 06:58:45;;;;;;;;;;;;;;;11.56;100.00;98995.16;4996151;28;19951;-70
2022/10/25 07:01:12;;;;;;;;;;;;;;;11.75;100.00;98999.16;4997456;28;19988;-69
2022/10/25 07:03:37;;;;;;;;;;;;;;;11.93;100.00;98993.66;4999769;28;19948;-73
2022/10/25 07:06:08;;;;;;;;;;;;;;;12.04;100.00;98994.34;4996483;28;19993;-70
2022/10/25 07:08:34;;;;;;;;;;;;;;;12.23;100.00;98985.38;4997244;28;20049;-71
2022/10/25 07:10:59;;;;;;;;;;;;;;;12.43;100.00;98986.72;4998196;28;20262;-67
2022/10/25 07:13:25;;;;;;;;;;;;;;;12.64;100.00;98987.09;4997730;28;20047;-68
2022/10/25 07:15:50;;;;;;;;;;;;;;;12.88;100.00;98984.84;4999451;28;19944;-67
2022/10/25 07:18:16;;;;;;;;;;;;;;;13.05;100.00;98983.59;4999480;28;20029;-68
2022/10/25 07:20:47;;;;;;;;;;;;;;;13.28;100.00;98986.47;4995099;28;19955;-67
2022/10/25 07:23:13;;;;;;;;;;;;;;;13.63;100.00;98988.19;4996279;28;19945;-67
2022/10/25 07:25:38;;;;;;;;;;;;;;;13.79;100.00;98977.50;4996656;28;19994;-69
2022/10/25 07:28:04;;;;;;;;;;;;;;;14.17;100.00;98980.72;4997856;28;20179;-66
2022/10/25 07:30:29;;;;;;;;;;;;;;;14.41;100.00;98971.47;4993610;28;19956;-69
2022/10/25 07:32:54;;;;;;;;;;;;;;;14.71;100.00;98974.06;4982945;28;19953;-68
2022/10/25 07:35:20;;;;;;;;;;;;;;;14.92;100.00;98969.06;4994558;28;20668;-67
2022/10/25 07:37:45;;;;;;;;;;;;;;;15.09;100.00;98969.41;4996315;28;19945;-69
2022/10/25 07:40:12;;;;;;;;;;;;;;;15.28;100.00;98964.47;4997722;28;19958;-69
2022/10/25 07:42:37;;;;;;;;;;;;;;;15.38;100.00;98977.94;5011719;28;20488;-67
2022/10/25 07:45:03;;;;;;;;;;;;;;;15.63;100.00;98981.44;4990058;28;19949;-69
2022/10/25 07:47:28;;;;;;;;;;;;;;;15.83;100.00;98975.56;5001882;28;19946;-67
2022/10/25 07:49:56;;;;;;;;;;;;;;;16.00;100.00;98978.41;5002406;28;20116;-69
2022/10/25 07:52:22;;;;;;;;;;;;;;;16.15;100.00;98977.03;4997995;28;20449;-69
2022/10/25 07:54:47;;;;;;;;;;;;;;;16.43;100.00;98963.03;5001560;28;19957;-68
2022/10/25 07:57:13;;;;;;;;;;;;;;;16.48;100.00;98960.25;5002355;28;19953;-70
2022/10/25 07:59:38;;;;;;;;;;;;;;;16.45;100.00;98960.38;5003194;28;19949;-69
2022/10/25 08:02:10;;;;;;;;;;;;;;;16.52;100.00;98961.00;5003234;28;20380;-69
2022/10/25 08:04:36;;;;;;;;;;;;;;;16.72;100.00;98959.34;4999449;28;19998;-68
2022/10/25 08:07:01;;;;;;;;;;;;;;;16.76;100.00;98963.50;4998390;28;20036;-68
2022/10/25 08:09:27;;;;;;;;;;;;;;;16.92;100.00;98955.16;4977536;28;19971;-61
2022/10/25 08:11:52;;;;;;;;;;;;;;;17.11;100.00;98969.06;4994773;28;20351;-68
2022/10/25 08:14:18;;;;;;;;;;;;;;;17.39;100.00;98964.47;4985058;28;19995;-68
2022/10/25 08:16:43;;;;;;;;;;;;;;;17.38;100.00;98970.56;4989122;28;20012;-68
2022/10/25 08:19:09;;;;;;;;;;;;;;;17.50;100.00;98974.38;4994546;28;19975;-65
2022/10/25 08:21:34;;;;;;;;;;;;;;;17.53;100.00;98984.63;4998762;28;19944;-69
2022/10/25 08:24:00;;;;;;;;;;;;;;;17.56;100.00;98980.16;4998660;28;19948;-67
2022/10/25 08:26:27;;;;;;;;;;;;;;;17.49;100.00;98983.91;4996780;28;20428;-68
2022/10/25 08:28:53;;;;;;;;;;;;;;;17.52;100.00;98985.53;4999762;28;20762;-66
2022/10/25 08:31:18;;;;;;;;;;;;;;;17.69;100.00;98981.38;4997613;28;20059;-69
2022/10/25 08:33:44;;;;;;;;;;;;;;;17.78;100.00;98982.72;4996102;28;20058;-69
2022/10/25 08:36:09;;;;;;;;;;;;;;;17.74;100.00;98992.38;5001835;28;20010;-70
2022/10/25 08:38:35;;;;;;;;;;;;;;;17.62;100.00;98998.09;4997891;28;20002;-66
2022/10/25 08:41:08;;;;;;;;;;;;;;;17.69;100.00;98994.34;4997342;28;19950;-67
2022/10/25 08:43:52;;;;;;;;;;;;;;;17.69;100.00;98991.75;4998325;28;19976;-67
2022/10/25 08:46:30;;;;;;;;;;;;;;;17.67;100.00;98983.19;4998734;28;19953;-69
2022/10/25 08:49:05;;;;;;;;;;;;;;;17.79;100.00;98982.66;4999457;28;19994;-67
2022/10/25 08:51:33;;;;;;;;;;;;;;;17.85;100.00;98986.75;5002534;28;20098;-68
2022/10/25 08:54:01;;;;;;;;;;;;;;;17.86;100.00;98985.84;5000065;28;20598;-68
2022/10/25 08:56:28;;;;;;;;;;;;;;;18.01;100.00;98987.78;4999509;28;20280;-69
2022/10/25 08:58:57;;;;;;;;;;;;;;;18.08;100.00;98978.81;5002223;28;20034;-69
2022/10/25 09:01:30;;;;;;;;;;;;;;;18.04;100.00;98986.78;5001618;28;19939;-68
2022/10/25 09:03:57;;;;;;;;;;;;;;;17.99;100.00;98992.16;4998499;28;20078;-70
2022/10/25 09:06:32;;;;;;;;;;;;;;;18.08;100.00;98988.34;4999381;28;20098;-71
2022/10/25 09:09:03;;;;;;;;;;;;;;;18.17;100.00;98987.94;5000810;28;20059;-67
2022/10/25 09:11:35;;;;;;;;;;;;;;;18.00;100.00;98987.81;4997705;28;20008;-68
2022/10/25 09:14:09;;;;;;;;;;;;;;;18.08;100.00;98991.78;4999954;28;20498;-66
2022/10/25 09:16:44;;;;;;;;;;;;;;;18.11;100.00;98989.06;4997070;28;20629;-69
2022/10/25 09:19:15;;;;;;;;;;;;;;;18.13;100.00;98986.38;4999053;28;19945;-67
2022/10/25 09:21:45;;;;;;;;;;;;;;;18.37;100.00;99000.06;4995360;28;19976;-67
2022/10/25 09:24:14;;;;;;;;;;;;;;;18.19;100.00;98989.56;5000661;28;20446;-70
2022/10/25 09:26:41;;;;;;;;;;;;;;;18.11;100.00;98989.06;5002535;28;19948;-67
2022/10/25 09:29:07;;;;;;;;;;;;;;;18.25;100.00;99006.59;4998944;28;20497;-66
2022/10/25 09:31:36;;;;;;;;;;;;;;;18.50;100.00;99003.78;5000660;28;19980;-68
2022/10/25 09:34:03;;;;;;;;;;;;;;;18.37;100.00;99000.06;5000404;28;19957;-68
2022/10/25 09:36:32;;;;;;;;;;;;;;;18.44;100.00;99002.31;5014790;28;19943;-69
2022/10/25 09:39:00;;;;;;;;;;;;;;;18.58;100.00;99002.56;4999047;28;20413;-69
2022/10/25 09:41:40;;;;;;;;;;;;;;;18.65;98.77;99009.16;4997928;28;19975;-69
2022/10/25 09:44:24;;;;;;;;;;;;;;;18.80;98.16;99020.59;5001809;28;19947;-66
2022/10/25 09:47:02;;;;;;;;;;;;;;;18.52;98.59;99009.75;5002029;28;20002;-69
2022/10/25 09:49:27;;;;;;;;;;;;;;;18.61;99.74;99012.81;5000232;28;19953;-69
2022/10/25 09:52:01;;;;;;;;;;;;;;;18.55;99.44;99010.47;5003024;28;19961;-70
2022/10/25 09:54:30;;;;;;;;;;;;;;;18.61;98.71;99011.97;5001617;28;20425;-68
2022/10/25 09:56:55;;;;;;;;;;;;;;;18.74;99.21;99020.03;5001291;28;19945;-67
2022/10/25 09:59:21;;;;;;;;;;;;;;;18.71;95.64;99018.44;4999274;28;19987;-66
2022/10/25 10:01:47;;;;;;;;;;;;;;;18.70;95.69;99012.41;4999814;28;19992;-64
2022/10/25 10:04:25;;;;;;;;;;;;;;;18.89;91.99;99009.78;4999076;28;19945;-67
2022/10/25 10:06:53;;;;;;;;;;;;;;;18.87;94.61;99010.78;4995296;28;19998;-63
2022/10/25 10:09:18;;;;;;;;;;;;;;;18.83;94.78;99010.06;4996080;28;19966;-68
2022/10/25 10:11:46;;;;;;;;;;;;;;;18.98;90.01;99000.69;4999489;28;20259;-66
2022/10/25 10:14:11;;;;;;;;;;;;;;;18.94;91.07;98997.41;4998407;28;20078;-67
2022/10/25 10:16:45;;;;;;;;;;;;;;;18.90;90.96;99000.22;4997167;28;19958;-67
2022/10/25 10:19:17;;;;;;;;;;;;;;;19.05;91.01;98991.72;4995889;28;20477;-67
2022/10/25 10:21:43;;;;;;;;;;;;;;;19.09;89.04;98996.72;4996781;28;19943;-67
2022/10/25 10:24:28;;;;;;;;;;;;;;;19.05;83.19;98992.53;4998254;28;20333;-67
2022/10/25 10:26:56;;;;;;;;;;;;;;;19.09;85.50;98993.25;4996172;28;20511;-66
2022/10/25 10:29:23;;;;;;;;;;;;;;;19.21;81.97;98999.63;4998010;28;19941;-64
2022/10/25 10:31:50;;;;;;;;;;;;;;;19.24;80.79;98989.91;5000975;28;19964;-68
2022/10/25 10:34:23;;;;;;;;;;;;;;;19.29;82.93;98989.69;5000499;28;20385;-66
2022/10/25 10:37:01;;;;;;;;;;;;;;;19.34;79.95;98990.31;5000560;28;19945;-68
2022/10/25 10:39:26;;;;;;;;;;;;;;;19.42;79.41;98988.19;4999425;28;19947;-67
2022/10/25 10:41:59;;;;;;;;;;;;;;;19.43;78.37;98990.75;5001195;28;19956;-67
2022/10/25 10:44:25;;;;;;;;;;;;;;;19.32;81.69;98974.78;4998491;28;20145;-67
2022/10/25 10:46:53;;;;;;;;;;;;;;;19.39;79.22;98983.13;5001458;28;19960;-67
2022/10/25 10:49:20;;;;;;;;;;;;;;;19.56;79.42;98971.00;5000477;28;20144;-67
2022/10/25 10:51:45;;;;;;;;;;;;;;;19.41;77.00;98976.09;5001741;28;19967;-68
2022/10/25 10:54:22;;;;;;;;;;;;;;;19.46;77.33;98974.13;4997039;28;19988;-68
2022/10/25 10:56:52;;;;;;;;;;;;;;;19.60;75.85;98962.13;4996734;28;20001;-67
2022/10/25 10:59:29;;;;;;;;;;;;;;;19.69;76.92;98973.00;4996639;28;19953;-67
2022/10/25 11:01:55;;;;;;;;;;;;;;;19.81;77.84;98970.63;4998823;28;20410;-68
2022/10/25 11:04:21;;;;;;;;;;;;;;;19.92;78.60;98970.91;4997334;28;19965;-67
2022/10/25 11:06:47;;;;;;;4.50;1.37;;;;;;;20.05;80.11;98964.16;4994385;28;20368;-68
2022/10/25 11:09:23;;;;;;;1.60;1.50;;;;;;;20.12;70.43;98971.63;4996858;28;20871;-62
2022/10/25 11:12:08;;;;;;;1.25;1.13;;;;;;;20.16;67.38;98962.72;4996026;28;20052;-70
2022/10/25 11:14:34;;;;;;;1.20;1.20;;;;;;;20.14;66.76;98962.81;5008913;28;20151;-68
2022/10/25 11:17:20;;;;;;;2.08;1.70;;;;;;;20.11;68.49;98967.34;4995926;28;20442;-68
2022/10/25 11:20:04;;;;;;;1.63;1.52;;;;;;;20.12;71.55;98962.06;4994633;28;20042;-68
2022/10/25 11:22:41;;;;;;;1.92;1.70;;;;;;;20.14;73.76;98970.63;4998579;28;20469;-66
2022/10/25 11:25:19;;;;;;;1.23;1.15;;;;;;;20.25;67.96;98967.44;5013734;28;20049;-63
2022/10/25 11:28:15;;;;;;;2.08;1.40;;;;;;;20.21;66.43;98972.00;4995246;28;20092;-70
2022/10/25 11:31:05;;;;;;;2.35;1.33;;;;;;;20.15;68.77;98968.88;4995724;28;20500;-67
2022/10/25 11:33:34;;;;;;;1.10;1.10;;;;;;;20.24;66.73;98958.00;4996001;28;20045;-66
2022/10/25 11:36:02;;;;;;;1.88;1.40;;;;;;;20.39;67.29;98965.00;4998634;28;20108;-68
2022/10/25 11:39:00;;;;;;;1.70;1.60;;;;;;;20.42;67.17;98965.69;4994887;28;20046;-69
2022/10/25 11:41:31;;;;;;;2.65;1.88;;;;;;;20.50;67.08;98966.09;4997919;28;20049;-61
2022/10/25 11:44:12;;;;;;;1.95;1.85;;;;;;;20.50;67.69;98970.47;5000087;28;20583;-61
2022/10/25 11:46:44;;;;;;;1.38;1.38;;;;;;;20.45;66.06;98967.28;5014186;28;20498;-62
2022/10/25 11:49:32;;;;;;;1.88;1.67;;;;;;;20.62;67.72;98964.63;4998753;28;20033;-60
2022/10/25 11:52:34;;;;;;;2.22;1.70;;;;;;;20.72;65.31;98960.56;4999627;28;20049;-61
2022/10/25 11:55:22;;;;;;;1.92;1.60;;;;;;;20.50;64.21;98967.84;4995051;28;20077;-62
2022/10/25 11:58:18;;;;;;;1.52;1.42;;;;;;;20.15;69.93;98959.31;4995092;28;20140;-62
2022/10/25 12:01:16;;;;;;;2.83;1.45;;;;;;;20.23;73.30;98961.50;4997559;28;20540;-62
2022/10/25 12:03:50;;;;;;;1.95;1.75;;;;;;;20.20;72.86;98956.47;4959464;28;20055;-62
2022/10/25 12:06:31;;;;;;;2.08;1.88;;;;;;;20.01;75.51;98962.63;4956675;28;20515;-62
2022/10/25 12:09:12;;;;;;;3.80;1.25;;;;;;;19.85;78.41;98956.53;4958069;28;20074;-63
2022/10/25 12:12:01;;;;;;;1.70;1.60;;;;;;;19.93;80.15;98958.75;4956653;28;20360;-62
2022/10/25 12:14:33;;;;;;;1.50;1.40;;;;;;;20.03;77.34;98965.13;4957619;28;20070;-62
2022/10/25 12:17:02;;;;;;;4.72;1.45;;;;;;;19.77;81.58;98930.06;4955700;28;20097;-61
2022/10/25 12:19:35;;;;;;;1.45;1.40;;;;;;;19.89;79.99;98946.81;4956897;28;20526;-62
2022/10/25 12:22:06;;;;;;;2.70;1.85;;;;;;;19.89;76.49;98937.25;4956951;28;20114;-62
2022/10/25 12:24:46;;;;;;;3.45;1.38;;;;;;;19.91;78.01;98957.97;4957933;28;20465;-62
2022/10/25 12:27:16;;;;;;;1.33;1.33;;;;;;;19.71;78.42;98932.97;4956009;28;20042;-62
2022/10/25 12:29:48;;;;;;;1.67;1.00;;;;;;;19.69;80.19;98952.19;4953470;28;20110;-62
2022/10/25 12:32:20;;;;;;;2.45;1.75;;;;;;;19.64;81.35;98947.22;4960300;28;20043;-62
2022/10/25 12:34:58;;;;;;;2.83;1.40;;;;;;;19.57;79.69;98936.28;4960788;28;20051;-62
2022/10/25 12:37:37;;;;;;;1.90;1.80;;;;;;;19.69;78.70;98941.78;4960642;28;20043;-63
2022/10/25 12:40:04;;;;;;;3.13;1.90;;;;;;;19.44;81.91;98931.75;4975407;28;20052;-62